sensor_id;sensor_type;location;lat;lon;timestamp;pressure;altitude;pressure_sealevel;temperature;humidity
20015;BME280;61787;42.022;23.078;2022-07-06T00:00:41;96691.69;;;21.16;100.00
20015;BME280;61787;42.022;23.078;2022-07-06T00:01:42;96679.22;;;21.15;100.00
20015;BME280;61787;42.022;23.078;2022-07-06T00:02:44;96679.63;;;21.13;100.00
20015;BME280;61787;42.022;23.078;2022-07-06T00:03:46;96667.16;;;21.09;100.00
20015;BME280;61787;42.022;23.078;2022-07-06T00:04:55;96667.56;;;21.11;100.00
20015;BME280;61787;42.022;23.078;2022-07-06T00:05:57;96669.09;;;21.15;100.00
20015;BME280;61787;42.022;23.078;2022-07-06T00:06:58;96668.66;;;21.20;100.00
20015;BME280;61787;42.022;23.078;2022-07-06T00:08:00;96668.97;;;21.26;100.00
20015;BME280;61787;42.022;23.078;2022-07-06T00:09:02;96681.78;;;21.33;100.00
20015;BME280;61787;42.022;23.078;2022-07-06T00:10:05;96681.25;;;21.45;100.00
20015;BME280;61787;42.022;23.078;2022-07-06T00:11:06;96688.91;;;21.57;100.00
20015;BME280;61787;42.022;23.078;2022-07-06T00:12:09;96691.47;;;21.71;100.00
20015;BME280;61787;42.022;23.078;2022-07-06T00:13:10;96693.34;;;21.78;100.00
20015;BME280;61787;42.022;23.078;2022-07-06T00:14:12;96693.28;;;21.85;100.00
20015;BME280;61787;42.022;23.078;2022-07-06T00:15:14;96698.63;;;21.92;100.00
20015;BME280;61787;42.022;23.078;2022-07-06T00:16:16;96692.28;;;22.02;100.00
20015;BME280;61787;42.022;23.078;2022-07-06T00:17:17;96693.75;;;22.10;99.49
20015;BME280;61787;42.022;23.078;2022-07-06T00:18:19;96685.09;;;22.15;98.29
20015;BME280;61787;42.022;23.078;2022-07-06T00:19:22;96692.00;;;22.23;97.97
20015;BME280;61787;42.022;23.078;2022-07-06T00:20:23;96688.09;;;22.24;97.24
20015;BME280;61787;42.022;23.078;2022-07-06T00:21:25;96688.13;;;22.21;97.65
20015;BME280;61787;42.022;23.078;2022-07-06T00:22:27;96687.44;;;22.13;96.81
20015;BME280;61787;42.022;23.078;2022-07-06T00:23:28;96689.09;;;22.07;97.22
20015;BME280;61787;42.022;23.078;2022-07-06T00:24:30;96687.19;;;22.04;97.47
20015;BME280;61787;42.022;23.078;2022-07-06T00:25:32;96689.97;;;22.00;97.05
20015;BME280;61787;42.022;23.078;2022-07-06T00:26:33;96691.47;;;22.05;97.59
20015;BME280;61787;42.022;23.078;2022-07-06T00:27:35;96699.88;;;22.18;96.80
20015;BME280;61787;42.022;23.078;2022-07-06T00:28:36;96700.56;;;22.25;96.30
20015;BME280;61787;42.022;23.078;2022-07-06T00:29:38;96699.72;;;22.28;95.33
20015;BME280;61787;42.022;23.078;2022-07-06T00:30:45;96701.03;;;22.20;95.83
20015;BME280;61787;42.022;23.078;2022-07-06T00:31:46;96694.19;;;22.05;96.18
20015;BME280;61787;42.022;23.078;2022-07-06T00:32:48;96700.94;;;21.97;96.41
20015;BME280;61787;42.022;23.078;2022-07-06T00:33:50;96694.34;;;21.91;96.61
20015;BME280;61787;42.022;23.078;2022-07-06T00:34:51;96698.28;;;21.90;96.86
20015;BME280;61787;42.022;23.078;2022-07-06T00:35:56;96699.41;;;21.92;96.71
20015;BME280;61787;42.022;23.078;2022-07-06T00:36:57;96700.56;;;21.95;96.36
20015;BME280;61787;42.022;23.078;2022-07-06T00:37:59;96698.56;;;21.99;96.01
20015;BME280;61787;42.022;23.078;2022-07-06T00:39:01;96697.84;;;21.95;95.15
20015;BME280;61787;42.022;23.078;2022-07-06T00:40:03;96698.69;;;21.88;96.70
20015;BME280;61787;42.022;23.078;2022-07-06T00:41:05;96694.38;;;21.87;97.02
20015;BME280;61787;42.022;23.078;2022-07-06T00:42:06;96699.44;;;21.89;96.70
20015;BME280;61787;42.022;23.078;2022-07-06T00:43:08;96694.66;;;22.00;95.59
20015;BME280;61787;42.022;23.078;2022-07-06T00:44:10;96686.47;;;22.00;94.84
20015;BME280;61787;42.022;23.078;2022-07-06T00:45:14;96684.47;;;22.04;94.60
20015;BME280;61787;42.022;23.078;2022-07-06T00:46:15;96682.00;;;22.13;94.81
20015;BME280;61787;42.022;23.078;2022-07-06T00:47:17;96688.91;;;22.21;94.65
20015;BME280;61787;42.022;23.078;2022-07-06T00:48:19;96675.50;;;22.30;93.68
20015;BME280;61787;42.022;23.078;2022-07-06T00:49:21;96680.50;;;22.35;93.03
20015;BME280;61787;42.022;23.078;2022-07-06T00:50:41;96681.59;;;22.41;91.86
20015;BME280;61787;42.022;23.078;2022-07-06T00:51:42;96681.53;;;22.45;91.69
20015;BME280;61787;42.022;23.078;2022-07-06T00:53:49;96676.72;;;22.52;90.21
20015;BME280;61787;42.022;23.078;2022-07-06T00:54:51;96676.72;;;22.52;89.69
20015;BME280;61787;42.022;23.078;2022-07-06T00:55:52;96672.00;;;22.57;89.66
20015;BME280;61787;42.022;23.078;2022-07-06T00:56:54;96677.31;;;22.64;89.70
20015;BME280;61787;42.022;23.078;2022-07-06T00:57:56;96682.75;;;22.67;89.55
20015;BME280;61787;42.022;23.078;2022-07-06T00:59:00;96672.94;;;22.70;89.17
20015;BME280;61787;42.022;23.078;2022-07-06T01:00:04;96675.69;;;22.70;89.07
20015;BME280;61787;42.022;23.078;2022-07-06T01:01:06;96671.38;;;22.69;88.89
20015;BME280;61787;42.022;23.078;2022-07-06T01:02:08;96678.81;;;22.72;89.17
20015;BME280;61787;42.022;23.078;2022-07-06T01:03:09;96667.88;;;22.72;89.06
20015;BME280;61787;42.022;23.078;2022-07-06T01:04:11;96668.22;;;22.74;89.10
20015;BME280;61787;42.022;23.078;2022-07-06T01:05:14;96670.94;;;22.74;89.06
20015;BME280;61787;42.022;23.078;2022-07-06T01:06:16;96665.47;;;22.74;88.20
20015;BME280;61787;42.022;23.078;2022-07-06T01:07:18;96652.59;;;22.74;88.54
20015;BME280;61787;42.022;23.078;2022-07-06T01:08:20;96662.72;;;22.77;87.72
20015;BME280;61787;42.022;23.078;2022-07-06T01:09:22;96659.13;;;22.80;86.90
20015;BME280;61787;42.022;23.078;2022-07-06T01:10:24;96665.44;;;22.77;87.39
20015;BME280;61787;42.022;23.078;2022-07-06T01:11:25;96665.47;;;22.74;87.57
20015;BME280;61787;42.022;23.078;2022-07-06T01:12:27;96659.34;;;22.66;87.51
20015;BME280;61787;42.022;23.078;2022-07-06T01:13:31;96664.97;;;22.56;88.45
20015;BME280;61787;42.022;23.078;2022-07-06T01:14:34;96661.53;;;22.51;88.66
20015;BME280;61787;42.022;23.078;2022-07-06T01:15:37;96667.47;;;22.46;89.49
20015;BME280;61787;42.022;23.078;2022-07-06T01:16:39;96673.75;;;22.43;89.44
20015;BME280;61787;42.022;23.078;2022-07-06T01:17:42;96672.31;;;22.35;89.78
20015;BME280;61787;42.022;23.078;2022-07-06T01:18:44;96669.78;;;22.21;90.12
20015;BME280;61787;42.022;23.078;2022-07-06T01:19:45;96678.13;;;22.10;90.79
20015;BME280;61787;42.022;23.078;2022-07-06T01:20:47;96675.91;;;22.02;91.40
20015;BME280;61787;42.022;23.078;2022-07-06T01:21:49;96671.25;;;21.99;91.68
20015;BME280;61787;42.022;23.078;2022-07-06T01:22:52;96674.88;;;21.89;92.38
20015;BME280;61787;42.022;23.078;2022-07-06T01:23:54;96669.09;;;21.83;93.17
20015;BME280;61787;42.022;23.078;2022-07-06T01:24:56;96667.28;;;21.73;93.58
20015;BME280;61787;42.022;23.078;2022-07-06T01:25:58;96667.69;;;21.72;93.78
20015;BME280;61787;42.022;23.078;2022-07-06T01:26:59;96670.06;;;21.69;94.30
20015;BME280;61787;42.022;23.078;2022-07-06T01:28:01;96667.34;;;21.69;94.31
20015;BME280;61787;42.022;23.078;2022-07-06T01:29:03;96661.41;;;21.75;94.00
20015;BME280;61787;42.022;23.078;2022-07-06T01:30:06;96669.94;;;21.77;93.71
20015;BME280;61787;42.022;23.078;2022-07-06T01:31:19;96673.91;;;21.72;93.88
20015;BME280;61787;42.022;23.078;2022-07-06T01:32:21;96675.53;;;21.66;94.98
20015;BME280;61787;42.022;23.078;2022-07-06T01:33:23;96670.09;;;21.66;94.55
20015;BME280;61787;42.022;23.078;2022-07-06T01:34:25;96669.69;;;21.67;93.97
20015;BME280;61787;42.022;23.078;2022-07-06T01:35:29;96670.84;;;21.66;94.19
20015;BME280;61787;42.022;23.078;2022-07-06T01:36:33;96667.03;;;21.60;95.02
20015;BME280;61787;42.022;23.078;2022-07-06T01:37:35;96670.91;;;21.63;95.07
20015;BME280;61787;42.022;23.078;2022-07-06T01:38:50;96669.31;;;21.65;94.86
20015;BME280;61787;42.022;23.078;2022-07-06T01:39:52;96677.94;;;21.60;95.52
20015;BME280;61787;42.022;23.078;2022-07-06T01:40:54;96672.50;;;21.60;95.67
20015;BME280;61787;42.022;23.078;2022-07-06T01:41:55;96672.47;;;21.64;95.73
20015;BME280;61787;42.022;23.078;2022-07-06T01:42:57;96676.25;;;21.74;94.72
20015;BME280;61787;42.022;23.078;2022-07-06T01:43:59;96668.84;;;21.70;94.83
20015;BME280;61787;42.022;23.078;2022-07-06T01:45:03;96674.00;;;21.65;95.12
20015;BME280;61787;42.022;23.078;2022-07-06T01:46:05;96670.97;;;21.59;95.43
20015;BME280;61787;42.022;23.078;2022-07-06T01:47:07;96666.34;;;21.53;95.85
20015;BME280;61787;42.022;23.078;2022-07-06T01:48:09;96668.75;;;21.47;96.23
20015;BME280;61787;42.022;23.078;2022-07-06T01:49:10;96659.09;;;21.39;96.71
20015;BME280;61787;42.022;23.078;2022-07-06T01:50:12;96664.19;;;21.37;96.73
20015;BME280;61787;42.022;23.078;2022-07-06T01:51:14;96659.47;;;21.41;96.86
20015;BME280;61787;42.022;23.078;2022-07-06T01:52:16;96664.84;;;21.48;96.04
20015;BME280;61787;42.022;23.078;2022-07-06T01:53:17;96662.06;;;21.52;95.81
20015;BME280;61787;42.022;23.078;2022-07-06T01:54:19;96665.13;;;21.57;95.70
20015;BME280;61787;42.022;23.078;2022-07-06T01:55:21;96661.69;;;21.50;97.23
20015;BME280;61787;42.022;23.078;2022-07-06T01:56:22;96661.00;;;21.42;97.97
20015;BME280;61787;42.022;23.078;2022-07-06T01:57:24;96667.25;;;21.43;98.22
20015;BME280;61787;42.022;23.078;2022-07-06T01:58:26;96667.16;;;21.50;97.40
20015;BME280;61787;42.022;23.078;2022-07-06T01:59:27;96669.75;;;21.60;97.28
20015;BME280;61787;42.022;23.078;2022-07-06T02:00:29;96675.88;;;21.72;97.29
20015;BME280;61787;42.022;23.078;2022-07-06T02:01:30;96679.63;;;21.85;95.30
20015;BME280;61787;42.022;23.078;2022-07-06T02:02:32;96673.69;;;21.90;94.58
20015;BME280;61787;42.022;23.078;2022-07-06T02:03:34;96674.78;;;21.96;93.44
20015;BME280;61787;42.022;23.078;2022-07-06T02:04:36;96673.22;;;21.98;93.77
20015;BME280;61787;42.022;23.078;2022-07-06T02:05:37;96676.00;;;21.95;95.21
20015;BME280;61787;42.022;23.078;2022-07-06T02:06:39;96678.28;;;22.00;94.37
20015;BME280;61787;42.022;23.078;2022-07-06T02:07:41;96668.06;;;22.04;94.22
20015;BME280;61787;42.022;23.078;2022-07-06T02:08:42;96669.56;;;22.08;94.17
20015;BME280;61787;42.022;23.078;2022-07-06T02:09:44;96674.19;;;22.11;94.14
20015;BME280;61787;42.022;23.078;2022-07-06T02:10:46;96672.63;;;22.14;93.96
20015;BME280;61787;42.022;23.078;2022-07-06T02:11:47;96678.06;;;22.14;94.59
20015;BME280;61787;42.022;23.078;2022-07-06T02:12:49;96679.63;;;22.15;94.84
20015;BME280;61787;42.022;23.078;2022-07-06T02:13:50;96676.91;;;22.15;94.62
20015;BME280;61787;42.022;23.078;2022-07-06T02:14:52;96677.69;;;22.16;93.27
20015;BME280;61787;42.022;23.078;2022-07-06T02:15:54;96686.28;;;22.14;93.17
20015;BME280;61787;42.022;23.078;2022-07-06T02:16:55;96685.09;;;22.15;92.83
20015;BME280;61787;42.022;23.078;2022-07-06T02:17:57;96685.03;;;22.19;92.43
20015;BME280;61787;42.022;23.078;2022-07-06T02:18:59;96686.53;;;22.23;91.08
20015;BME280;61787;42.022;23.078;2022-07-06T02:20:00;96687.38;;;22.20;90.78
20015;BME280;61787;42.022;23.078;2022-07-06T02:21:03;96681.13;;;22.20;90.96
20015;BME280;61787;42.022;23.078;2022-07-06T02:22:05;96688.16;;;22.17;92.13
20015;BME280;61787;42.022;23.078;2022-07-06T02:23:07;96684.72;;;22.13;91.48
20015;BME280;61787;42.022;23.078;2022-07-06T02:24:08;96691.00;;;22.10;91.58
20015;BME280;61787;42.022;23.078;2022-07-06T02:25:10;96692.28;;;22.02;91.58
20015;BME280;61787;42.022;23.078;2022-07-06T02:26:11;96699.81;;;21.94;92.05
20015;BME280;61787;42.022;23.078;2022-07-06T02:27:13;96698.63;;;21.92;92.26
20015;BME280;61787;42.022;23.078;2022-07-06T02:28:15;96699.06;;;21.87;92.08
20015;BME280;61787;42.022;23.078;2022-07-06T02:29:16;96689.78;;;21.81;92.02
20015;BME280;61787;42.022;23.078;2022-07-06T02:30:18;96693.41;;;21.74;92.10
20015;BME280;61787;42.022;23.078;2022-07-06T02:31:20;96686.44;;;21.69;92.50
20015;BME280;61787;42.022;23.078;2022-07-06T02:32:21;96690.06;;;21.59;92.89
20015;BME280;61787;42.022;23.078;2022-07-06T02:33:23;96687.41;;;21.52;93.60
20015;BME280;61787;42.022;23.078;2022-07-06T02:34:25;96688.19;;;21.53;93.26
20015;BME280;61787;42.022;23.078;2022-07-06T02:37:09;96689.88;;;21.40;93.79
20015;BME280;61787;42.022;23.078;2022-07-06T02:38:11;96691.91;;;21.32;94.29
20015;BME280;61787;42.022;23.078;2022-07-06T02:39:12;96690.75;;;21.30;94.48
20015;BME280;61787;42.022;23.078;2022-07-06T02:40:14;96694.34;;;21.23;95.67
20015;BME280;61787;42.022;23.078;2022-07-06T02:41:16;96687.69;;;21.24;96.21
20015;BME280;61787;42.022;23.078;2022-07-06T02:42:17;96688.81;;;21.30;95.88
20015;BME280;61787;42.022;23.078;2022-07-06T02:43:19;96690.34;;;21.31;96.19
20015;BME280;61787;42.022;23.078;2022-07-06T02:44:54;96689.13;;;21.36;96.93
20015;BME280;61787;42.022;23.078;2022-07-06T02:46:08;96693.38;;;21.40;96.91
20015;BME280;61787;42.022;23.078;2022-07-06T02:47:10;96689.84;;;21.43;96.91
20015;BME280;61787;42.022;23.078;2022-07-06T02:48:11;96692.16;;;21.45;96.99
20015;BME280;61787;42.022;23.078;2022-07-06T02:49:13;96696.03;;;21.47;97.28
20015;BME280;61787;42.022;23.078;2022-07-06T02:50:15;96693.69;;;21.49;97.47
20015;BME280;61787;42.022;23.078;2022-07-06T02:51:16;96693.59;;;21.56;97.11
20015;BME280;61787;42.022;23.078;2022-07-06T02:52:18;96695.16;;;21.57;96.62
20015;BME280;61787;42.022;23.078;2022-07-06T02:53:20;96691.25;;;21.58;96.45
20015;BME280;61787;42.022;23.078;2022-07-06T02:54:22;96694.31;;;21.60;96.83
20015;BME280;61787;42.022;23.078;2022-07-06T02:57:39;96692.41;;;21.57;97.61
20015;BME280;61787;42.022;23.078;2022-07-06T02:58:40;96698.25;;;21.59;97.78
20015;BME280;61787;42.022;23.078;2022-07-06T02:59:42;96698.94;;;21.67;97.26
20015;BME280;61787;42.022;23.078;2022-07-06T03:00:44;96697.25;;;21.77;96.46
20015;BME280;61787;42.022;23.078;2022-07-06T03:01:46;96696.34;;;21.87;95.22
20015;BME280;61787;42.022;23.078;2022-07-06T03:02:47;96689.66;;;21.95;94.81
20015;BME280;61787;42.022;23.078;2022-07-06T03:03:49;96694.66;;;22.00;94.52
20015;BME280;61787;42.022;23.078;2022-07-06T03:04:51;96700.84;;;22.04;93.88
20015;BME280;61787;42.022;23.078;2022-07-06T03:05:53;96701.56;;;22.08;93.38
20015;BME280;61787;42.022;23.078;2022-07-06T03:06:54;96701.50;;;22.11;93.55
20015;BME280;61787;42.022;23.078;2022-07-06T03:07:56;96702.25;;;22.16;93.58
20015;BME280;61787;42.022;23.078;2022-07-06T03:08:57;96702.19;;;22.19;92.96
20015;BME280;61787;42.022;23.078;2022-07-06T03:09:59;96702.56;;;22.21;92.89
20015;BME280;61787;42.022;23.078;2022-07-06T03:11:01;96702.72;;;22.10;93.92
20015;BME280;61787;42.022;23.078;2022-07-06T03:12:03;96704.84;;;21.92;94.46
20015;BME280;61787;42.022;23.078;2022-07-06T03:13:05;96712.00;;;21.83;94.06
20015;BME280;61787;42.022;23.078;2022-07-06T03:14:06;96709.28;;;21.83;94.87
20015;BME280;61787;42.022;23.078;2022-07-06T03:15:08;96709.97;;;21.90;95.14
20015;BME280;61787;42.022;23.078;2022-07-06T03:17:12;96715.59;;;22.10;93.36
20015;BME280;61787;42.022;23.078;2022-07-06T03:18:14;96722.13;;;22.16;93.04
20015;BME280;61787;42.022;23.078;2022-07-06T03:19:16;96714.69;;;22.20;92.45
20015;BME280;61787;42.022;23.078;2022-07-06T03:20:18;96719.31;;;22.23;92.03
20015;BME280;61787;42.022;23.078;2022-07-06T03:21:19;96714.56;;;22.27;92.07
20015;BME280;61787;42.022;23.078;2022-07-06T03:22:21;96723.13;;;22.29;91.73
20015;BME280;61787;42.022;23.078;2022-07-06T03:23:23;96723.13;;;22.29;91.39
20015;BME280;61787;42.022;23.078;2022-07-06T03:24:24;96731.72;;;22.31;91.17
20015;BME280;61787;42.022;23.078;2022-07-06T03:25:26;96725.41;;;22.34;91.00
20015;BME280;61787;42.022;23.078;2022-07-06T03:26:28;96732.44;;;22.35;90.68
20015;BME280;61787;42.022;23.078;2022-07-06T03:27:30;96727.72;;;22.36;90.33
20015;BME280;61787;42.022;23.078;2022-07-06T03:28:31;96725.47;;;22.31;90.22
20015;BME280;61787;42.022;23.078;2022-07-06T03:29:33;96727.03;;;22.28;90.63
20015;BME280;61787;42.022;23.078;2022-07-06T03:30:34;96723.97;;;22.26;89.75
20015;BME280;61787;42.022;23.078;2022-07-06T03:31:36;96735.06;;;22.12;89.77
20015;BME280;61787;42.022;23.078;2022-07-06T03:32:38;96724.25;;;22.05;90.24
20015;BME280;61787;42.022;23.078;2022-07-06T03:33:40;96724.28;;;22.01;90.04
20015;BME280;61787;42.022;23.078;2022-07-06T03:34:41;96723.41;;;22.08;89.93
20015;BME280;61787;42.022;23.078;2022-07-06T03:35:43;96724.50;;;22.14;90.36
20015;BME280;61787;42.022;23.078;2022-07-06T03:36:45;96717.03;;;22.18;90.36
20015;BME280;61787;42.022;23.078;2022-07-06T03:37:46;96722.41;;;22.25;90.10
20015;BME280;61787;42.022;23.078;2022-07-06T03:38:48;96718.84;;;22.28;89.94
20015;BME280;61787;42.022;23.078;2022-07-06T03:39:50;96729.72;;;22.32;89.45
20015;BME280;61787;42.022;23.078;2022-07-06T03:40:51;96716.84;;;22.32;88.53
20015;BME280;61787;42.022;23.078;2022-07-06T03:41:53;96725.41;;;22.34;87.83
20015;BME280;61787;42.022;23.078;2022-07-06T03:42:55;96726.13;;;22.38;87.73
20015;BME280;61787;42.022;23.078;2022-07-06T03:43:56;96724.53;;;22.41;88.20
20015;BME280;61787;42.022;23.078;2022-07-06T03:44:58;96726.38;;;22.47;88.16
20015;BME280;61787;42.022;23.078;2022-07-06T03:46:00;96716.59;;;22.50;87.65
20015;BME280;61787;42.022;23.078;2022-07-06T03:47:02;96718.88;;;22.55;87.44
20015;BME280;61787;42.022;23.078;2022-07-06T03:48:04;96721.91;;;22.61;86.80
20015;BME280;61787;42.022;23.078;2022-07-06T03:49:06;96721.06;;;22.64;86.19
20015;BME280;61787;42.022;23.078;2022-07-06T03:50:08;96726.50;;;22.67;85.86
20015;BME280;61787;42.022;23.078;2022-07-06T03:51:10;96716.31;;;22.68;85.91
20015;BME280;61787;42.022;23.078;2022-07-06T03:52:12;96719.38;;;22.73;85.43
20015;BME280;61787;42.022;23.078;2022-07-06T03:53:14;96722.06;;;22.77;85.88
20015;BME280;61787;42.022;23.078;2022-07-06T03:54:15;96720.94;;;22.74;85.95
20015;BME280;61787;42.022;23.078;2022-07-06T03:55:17;96719.50;;;22.63;86.16
20015;BME280;61787;42.022;23.078;2022-07-06T03:56:18;96710.72;;;22.51;86.68
20015;BME280;61787;42.022;23.078;2022-07-06T03:57:29;96724.56;;;22.37;87.04
20015;BME280;61787;42.022;23.078;2022-07-06T03:58:31;96717.63;;;22.33;86.92
20015;BME280;61787;42.022;23.078;2022-07-06T03:59:33;96714.38;;;22.41;86.34
20015;BME280;61787;42.022;23.078;2022-07-06T04:00:35;96720.56;;;22.45;86.19
20015;BME280;61787;42.022;23.078;2022-07-06T04:01:36;96723.63;;;22.51;86.28
20015;BME280;61787;42.022;23.078;2022-07-06T04:02:39;96722.00;;;22.53;86.14
20015;BME280;61787;42.022;23.078;2022-07-06T04:03:40;96725.56;;;22.50;86.04
20015;BME280;61787;42.022;23.078;2022-07-06T04:04:42;96725.25;;;22.45;85.36
20015;BME280;61787;42.022;23.078;2022-07-06T04:05:44;96726.38;;;22.47;86.61
20015;BME280;61787;42.022;23.078;2022-07-06T04:06:45;96721.22;;;22.53;86.62
20015;BME280;61787;42.022;23.078;2022-07-06T04:07:48;96724.28;;;22.59;86.28
20015;BME280;61787;42.022;23.078;2022-07-06T04:08:50;96724.16;;;22.66;86.05
20015;BME280;61787;42.022;23.078;2022-07-06T04:09:52;96722.56;;;22.72;85.98
20015;BME280;61787;42.022;23.078;2022-07-06T04:10:53;96725.28;;;22.72;85.90
20015;BME280;61787;42.022;23.078;2022-07-06T04:11:55;96727.94;;;22.75;85.98
20015;BME280;61787;42.022;23.078;2022-07-06T04:12:57;96730.69;;;22.75;86.40
20015;BME280;61787;42.022;23.078;2022-07-06T04:13:58;96720.88;;;22.78;86.49
20015;BME280;61787;42.022;23.078;2022-07-06T04:15:00;96729.03;;;22.81;85.72
20015;BME280;61787;42.022;23.078;2022-07-06T04:16:01;96729.44;;;22.80;84.82
20015;BME280;61787;42.022;23.078;2022-07-06T04:17:03;96729.50;;;22.76;84.95
20015;BME280;61787;42.022;23.078;2022-07-06T04:18:25;96729.84;;;22.78;85.17
20015;BME280;61787;42.022;23.078;2022-07-06T04:19:28;96728.59;;;22.83;85.09
20015;BME280;61787;42.022;23.078;2022-07-06T04:20:29;96732.41;;;22.89;84.84
20015;BME280;61787;42.022;23.078;2022-07-06T04:21:31;96728.03;;;22.95;84.54
20015;BME280;61787;42.022;23.078;2022-07-06T04:22:33;96733.88;;;22.97;84.71
20015;BME280;61787;42.022;23.078;2022-07-06T04:23:34;96728.41;;;22.97;85.18
20015;BME280;61787;42.022;23.078;2022-07-06T04:24:36;96724.41;;;23.02;84.78
20015;BME280;61787;42.022;23.078;2022-07-06T04:25:37;96726.00;;;22.99;84.72
20015;BME280;61787;42.022;23.078;2022-07-06T04:26:39;96726.06;;;22.95;85.21
20015;BME280;61787;42.022;23.078;2022-07-06T04:27:41;96724.91;;;22.93;84.85
20015;BME280;61787;42.022;23.078;2022-07-06T04:28:43;96729.34;;;22.87;84.57
20015;BME280;61787;42.022;23.078;2022-07-06T04:29:44;96724.69;;;22.84;85.01
20015;BME280;61787;42.022;23.078;2022-07-06T04:30:46;96727.13;;;22.78;85.37
20015;BME280;61787;42.022;23.078;2022-07-06T04:31:48;96725.63;;;22.74;86.35
20015;BME280;61787;42.022;23.078;2022-07-06T04:32:50;96724.06;;;22.73;87.01
20015;BME280;61787;42.022;23.078;2022-07-06T04:33:52;96721.34;;;22.73;87.15
20015;BME280;61787;42.022;23.078;2022-07-06T04:34:53;96727.94;;;22.75;86.91
20015;BME280;61787;42.022;23.078;2022-07-06T04:35:55;96725.59;;;22.77;86.91
20015;BME280;61787;42.022;23.078;2022-07-06T04:36:56;96727.25;;;22.68;87.32
20015;BME280;61787;42.022;23.078;2022-07-06T04:37:58;96733.94;;;22.67;87.41
20015;BME280;61787;42.022;23.078;2022-07-06T04:39:00;96733.50;;;22.72;86.94
20015;BME280;61787;42.022;23.078;2022-07-06T04:40:02;96734.19;;;22.76;86.72
20015;BME280;61787;42.022;23.078;2022-07-06T04:41:03;96738.13;;;22.75;86.05
20015;BME280;61787;42.022;23.078;2022-07-06T04:42:05;96733.94;;;22.67;86.08
20015;BME280;61787;42.022;23.078;2022-07-06T04:43:07;96744.28;;;22.52;85.96
20015;BME280;61787;42.022;23.078;2022-07-06T04:44:08;96732.44;;;22.32;87.28
20015;BME280;61787;42.022;23.078;2022-07-06T04:45:10;96740.44;;;22.19;88.71
20015;BME280;61787;42.022;23.078;2022-07-06T04:46:12;96744.28;;;22.25;88.47
20015;BME280;61787;42.022;23.078;2022-07-06T04:47:14;96737.84;;;22.08;89.76
20015;BME280;61787;42.022;23.078;2022-07-06T04:48:16;96736.84;;;21.92;89.82
20015;BME280;61787;42.022;23.078;2022-07-06T04:49:17;96737.78;;;21.78;91.01
20015;BME280;61787;42.022;23.078;2022-07-06T04:50:19;96747.72;;;21.61;92.43
20015;BME280;61787;42.022;23.078;2022-07-06T04:51:21;96746.25;;;21.53;93.15
20015;BME280;61787;42.022;23.078;2022-07-06T04:52:22;96746.00;;;21.41;93.53
20015;BME280;61787;42.022;23.078;2022-07-06T04:53:24;96756.31;;;21.19;94.48
20015;BME280;61787;42.022;23.078;2022-07-06T04:54:25;96751.69;;;21.09;95.38
20015;BME280;61787;42.022;23.078;2022-07-06T04:55:27;96753.25;;;21.13;95.94
20015;BME280;61787;42.022;23.078;2022-07-06T04:56:29;96751.63;;;21.19;96.05
20015;BME280;61787;42.022;23.078;2022-07-06T04:57:31;96758.59;;;21.24;97.00
20015;BME280;61787;42.022;23.078;2022-07-06T04:58:32;96751.63;;;21.19;95.89
20015;BME280;61787;42.022;23.078;2022-07-06T04:59:34;96754.34;;;21.23;95.05
20015;BME280;61787;42.022;23.078;2022-07-06T05:00:36;96753.88;;;21.32;95.23
20015;BME280;61787;42.022;23.078;2022-07-06T05:01:37;96752.94;;;21.49;95.07
20015;BME280;61787;42.022;23.078;2022-07-06T05:02:39;96752.44;;;21.57;93.95
20015;BME280;61787;42.022;23.078;2022-07-06T05:03:41;96754.00;;;21.58;93.34
20015;BME280;61787;42.022;23.078;2022-07-06T05:04:43;96751.28;;;21.58;93.10
20015;BME280;61787;42.022;23.078;2022-07-06T05:05:44;96753.97;;;21.62;93.40
20015;BME280;61787;42.022;23.078;2022-07-06T05:06:46;96755.41;;;21.74;93.04
20015;BME280;61787;42.022;23.078;2022-07-06T05:07:48;96748.66;;;21.82;92.59
20015;BME280;61787;42.022;23.078;2022-07-06T05:08:49;96755.63;;;21.90;92.59
20015;BME280;61787;42.022;23.078;2022-07-06T05:09:51;96755.09;;;22.02;92.57
20015;BME280;61787;42.022;23.078;2022-07-06T05:10:52;96756.13;;;22.15;91.34
20015;BME280;61787;42.022;23.078;2022-07-06T05:11:54;96755.84;;;22.36;91.21
20015;BME280;61787;42.022;23.078;2022-07-06T05:12:56;96762.75;;;22.44;89.00
20015;BME280;61787;42.022;23.078;2022-07-06T05:13:58;96757.72;;;22.39;88.08
20015;BME280;61787;42.022;23.078;2022-07-06T05:14:59;96758.81;;;22.45;88.36
20015;BME280;61787;42.022;23.078;2022-07-06T05:16:01;96757.78;;;22.63;89.03
20015;BME280;61787;42.022;23.078;2022-07-06T05:17:03;96756.25;;;22.62;86.31
20015;BME280;61787;42.022;23.078;2022-07-06T05:18:05;96763.78;;;22.54;88.14
20015;BME280;61787;42.022;23.078;2022-07-06T05:19:07;96760.31;;;22.50;87.25
20015;BME280;61787;42.022;23.078;2022-07-06T05:20:08;96759.50;;;22.53;87.72
20015;BME280;61787;42.022;23.078;2022-07-06T05:21:10;96760.88;;;22.65;87.55
20015;BME280;61787;42.022;23.078;2022-07-06T05:22:12;96755.19;;;22.82;86.00
20015;BME280;61787;42.022;23.078;2022-07-06T05:23:13;96764.41;;;22.92;85.55
20015;BME280;61787;42.022;23.078;2022-07-06T05:24:15;96756.69;;;22.87;84.94
20015;BME280;61787;42.022;23.078;2022-07-06T05:25:20;96761.25;;;22.93;85.12
20015;BME280;61787;42.022;23.078;2022-07-06T05:26:22;96757.88;;;23.09;85.38
20015;BME280;61787;42.022;23.078;2022-07-06T05:27:24;96761.81;;;23.31;84.32
20015;BME280;61787;42.022;23.078;2022-07-06T05:28:26;96758.88;;;23.42;83.15
20015;BME280;61787;42.022;23.078;2022-07-06T05:29:35;96756.81;;;23.50;82.32
20015;BME280;61787;42.022;23.078;2022-07-06T05:30:37;96762.72;;;23.48;82.26
20015;BME280;61787;42.022;23.078;2022-07-06T05:31:38;96758.47;;;23.67;82.33